sensor_id;sensor_type;location;lat;lon;timestamp;temperature;humidity
18823;DHT22;9540;51.550;7.980;2023-07-31T00:00:42;15.00;99.90
18823;DHT22;9540;51.550;7.980;2023-07-31T00:03:12;15.00;99.90
18823;DHT22;9540;51.550;7.980;2023-07-31T00:05:39;15.10;99.90
18823;DHT22;9540;51.550;7.980;2023-07-31T00:08:06;15.00;99.90
18823;DHT22;9540;51.550;7.980;2023-07-31T00:10:33;15.10;99.90
18823;DHT22;9540;51.550;7.980;2023-07-31T00:13:00;15.10;99.90
18823;DHT22;9540;51.550;7.980;2023-07-31T00:15:27;15.10;99.90
18823;DHT22;9540;51.550;7.980;2023-07-31T00:17:56;15.10;99.90
18823;DHT22;9540;51.550;7.980;2023-07-31T00:20:23;15.10;99.90
18823;DHT22;9540;51.550;7.980;2023-07-31T00:22:50;15.10;99.90
18823;DHT22;9540;51.550;7.980;2023-07-31T00:25:17;15.10;99.90
18823;DHT22;9540;51.550;7.980;2023-07-31T00:27:44;15.10;99.90
18823;DHT22;9540;51.550;7.980;2023-07-31T00:30:12;15.10;99.90
18823;DHT22;9540;51.550;7.980;2023-07-31T00:32:39;15.10;99.90
18823;DHT22;9540;51.550;7.980;2023-07-31T00:35:08;15.10;99.90
18823;DHT22;9540;51.550;7.980;2023-07-31T00:37:35;15.10;99.90
18823;DHT22;9540;51.550;7.980;2023-07-31T00:40:02;15.10;99.90
18823;DHT22;9540;51.550;7.980;2023-07-31T00:42:30;15.10;99.90
18823;DHT22;9540;51.550;7.980;2023-07-31T00:44:57;15.10;99.90
18823;DHT22;9540;51.550;7.980;2023-07-31T00:47:24;15.10;99.90
18823;DHT22;9540;51.550;7.980;2023-07-31T00:49:51;15.10;99.90
18823;DHT22;9540;51.550;7.980;2023-07-31T00:52:20;15.20;99.90
18823;DHT22;9540;51.550;7.980;2023-07-31T00:54:50;15.10;99.90
18823;DHT22;9540;51.550;7.980;2023-07-31T00:57:18;15.20;99.90
18823;DHT22;9540;51.550;7.980;2023-07-31T00:59:45;15.10;99.90
18823;DHT22;9540;51.550;7.980;2023-07-31T01:02:13;15.20;99.90
18823;DHT22;9540;51.550;7.980;2023-07-31T01:04:42;15.10;99.90
18823;DHT22;9540;51.550;7.980;2023-07-31T01:07:13;15.10;99.90
18823;DHT22;9540;51.550;7.980;2023-07-31T01:09:47;15.20;99.90
18823;DHT22;9540;51.550;7.980;2023-07-31T01:12:17;15.20;99.90
18823;DHT22;9540;51.550;7.980;2023-07-31T01:14:51;15.20;99.90
18823;DHT22;9540;51.550;7.980;2023-07-31T01:17:19;15.10;99.90
18823;DHT22;9540;51.550;7.980;2023-07-31T01:19:47;15.20;99.90
18823;DHT22;9540;51.550;7.980;2023-07-31T01:22:30;15.20;99.90
18823;DHT22;9540;51.550;7.980;2023-07-31T01:25:11;15.20;99.90
18823;DHT22;9540;51.550;7.980;2023-07-31T01:27:57;15.20;99.90
18823;DHT22;9540;51.550;7.980;2023-07-31T01:30:28;15.20;99.90
18823;DHT22;9540;51.550;7.980;2023-07-31T01:32:59;15.20;99.90
18823;DHT22;9540;51.550;7.980;2023-07-31T01:35:32;15.20;99.90
18823;DHT22;9540;51.550;7.980;2023-07-31T01:37:59;15.30;99.90
18823;DHT22;9540;51.550;7.980;2023-07-31T01:40:26;15.30;99.90
18823;DHT22;9540;51.550;7.980;2023-07-31T01:42:55;15.30;99.90
18823;DHT22;9540;51.550;7.980;2023-07-31T01:45:22;15.30;99.90
18823;DHT22;9540;51.550;7.980;2023-07-31T01:47:57;15.20;99.90
18823;DHT22;9540;51.550;7.980;2023-07-31T01:50:25;15.30;99.90
18823;DHT22;9540;51.550;7.980;2023-07-31T01:52:52;15.20;99.90
18823;DHT22;9540;51.550;7.980;2023-07-31T01:55:19;15.30;99.90
18823;DHT22;9540;51.550;7.980;2023-07-31T01:57:46;15.30;99.90
18823;DHT22;9540;51.550;7.980;2023-07-31T02:00:16;15.20;99.90
18823;DHT22;9540;51.550;7.980;2023-07-31T02:02:44;15.30;99.90
18823;DHT22;9540;51.550;7.980;2023-07-31T02:05:11;15.30;99.90
18823;DHT22;9540;51.550;7.980;2023-07-31T02:07:38;15.30;99.90
18823;DHT22;9540;51.550;7.980;2023-07-31T02:10:06;15.20;99.90
18823;DHT22;9540;51.550;7.980;2023-07-31T02:12:33;15.20;99.90
18823;DHT22;9540;51.550;7.980;2023-07-31T02:15:00;15.20;99.90
18823;DHT22;9540;51.550;7.980;2023-07-31T02:17:29;15.20;99.90
18823;DHT22;9540;51.550;7.980;2023-07-31T02:19:56;15.20;99.90
18823;DHT22;9540;51.550;7.980;2023-07-31T02:22:23;15.20;99.90
18823;DHT22;9540;51.550;7.980;2023-07-31T02:24:50;15.20;99.90
18823;DHT22;9540;51.550;7.980;2023-07-31T02:27:17;15.10;99.90
18823;DHT22;9540;51.550;7.980;2023-07-31T02:29:45;15.10;99.90
18823;DHT22;9540;51.550;7.980;2023-07-31T02:32:12;15.10;99.90
18823;DHT22;9540;51.550;7.980;2023-07-31T02:34:40;15.10;99.90
18823;DHT22;9540;51.550;7.980;2023-07-31T02:37:07;15.10;99.90
18823;DHT22;9540;51.550;7.980;2023-07-31T02:39:34;15.10;99.90
18823;DHT22;9540;51.550;7.980;2023-07-31T02:42:02;15.10;99.90
18823;DHT22;9540;51.550;7.980;2023-07-31T02:44:29;15.10;99.90
18823;DHT22;9540;51.550;7.980;2023-07-31T02:46:56;15.10;99.90
18823;DHT22;9540;51.550;7.980;2023-07-31T02:49:23;15.10;99.90
18823;DHT22;9540;51.550;7.980;2023-07-31T02:51:52;15.10;99.90
18823;DHT22;9540;51.550;7.980;2023-07-31T02:54:19;15.10;99.90
18823;DHT22;9540;51.550;7.980;2023-07-31T02:56:50;15.10;99.90
18823;DHT22;9540;51.550;7.980;2023-07-31T02:59:17;15.10;99.90
18823;DHT22;9540;51.550;7.980;2023-07-31T03:01:44;15.10;99.90
18823;DHT22;9540;51.550;7.980;2023-07-31T03:04:12;15.10;99.90
18823;DHT22;9540;51.550;7.980;2023-07-31T03:06:39;15.20;99.90
18823;DHT22;9540;51.550;7.980;2023-07-31T03:09:07;15.10;99.90
18823;DHT22;9540;51.550;7.980;2023-07-31T03:11:34;15.10;99.90
18823;DHT22;9540;51.550;7.980;2023-07-31T03:14:02;15.10;99.90
18823;DHT22;9540;51.550;7.980;2023-07-31T03:16:29;15.10;99.90
18823;DHT22;9540;51.550;7.980;2023-07-31T03:18:56;15.10;99.90
18823;DHT22;9540;51.550;7.980;2023-07-31T03:21:23;15.10;99.90
18823;DHT22;9540;51.550;7.980;2023-07-31T03:23:50;15.10;99.90
18823;DHT22;9540;51.550;7.980;2023-07-31T03:26:19;15.10;99.90
18823;DHT22;9540;51.550;7.980;2023-07-31T03:28:46;15.10;99.90
18823;DHT22;9540;51.550;7.980;2023-07-31T03:31:15;15.10;99.90
18823;DHT22;9540;51.550;7.980;2023-07-31T03:33:42;15.10;99.90
18823;DHT22;9540;51.550;7.980;2023-07-31T03:36:09;15.10;99.90
18823;DHT22;9540;51.550;7.980;2023-07-31T03:38:36;15.10;99.90
18823;DHT22;9540;51.550;7.980;2023-07-31T03:41:03;15.10;99.90
18823;DHT22;9540;51.550;7.980;2023-07-31T03:43:33;15.10;99.90
18823;DHT22;9540;51.550;7.980;2023-07-31T03:46:00;15.10;99.90
18823;DHT22;9540;51.550;7.980;2023-07-31T03:48:28;15.10;99.90
18823;DHT22;9540;51.550;7.980;2023-07-31T03:50:55;15.20;99.90
18823;DHT22;9540;51.550;7.980;2023-07-31T03:53:23;15.10;99.90
18823;DHT22;9540;51.550;7.980;2023-07-31T03:55:50;15.20;99.90
18823;DHT22;9540;51.550;7.980;2023-07-31T03:58:17;15.20;99.90
18823;DHT22;9540;51.550;7.980;2023-07-31T04:00:46;15.20;99.90
18823;DHT22;9540;51.550;7.980;2023-07-31T04:03:14;15.10;99.90
18823;DHT22;9540;51.550;7.980;2023-07-31T04:05:41;15.10;99.90
18823;DHT22;9540;51.550;7.980;2023-07-31T04:08:08;15.10;99.90
18823;DHT22;9540;51.550;7.980;2023-07-31T04:10:35;15.10;99.90
18823;DHT22;9540;51.550;7.980;2023-07-31T04:13:02;15.10;99.90
18823;DHT22;9540;51.550;7.980;2023-07-31T04:15:29;15.20;99.90
18823;DHT22;9540;51.550;7.980;2023-07-31T04:17:58;15.20;99.90
18823;DHT22;9540;51.550;7.980;2023-07-31T04:20:25;15.10;99.90
18823;DHT22;9540;51.550;7.980;2023-07-31T04:22:52;15.10;99.90
18823;DHT22;9540;51.550;7.980;2023-07-31T04:25:19;15.20;99.90
18823;DHT22;9540;51.550;7.980;2023-07-31T04:27:46;15.30;99.90
18823;DHT22;9540;51.550;7.980;2023-07-31T04:30:14;15.30;99.90
18823;DHT22;9540;51.550;7.980;2023-07-31T04:32:41;15.30;99.90
18823;DHT22;9540;51.550;7.980;2023-07-31T04:35:10;15.30;99.90
18823;DHT22;9540;51.550;7.980;2023-07-31T04:37:37;15.30;99.90
18823;DHT22;9540;51.550;7.980;2023-07-31T04:40:06;15.30;99.90
18823;DHT22;9540;51.550;7.980;2023-07-31T04:42:34;15.40;99.90
18823;DHT22;9540;51.550;7.980;2023-07-31T04:45:01;15.30;99.90
18823;DHT22;9540;51.550;7.980;2023-07-31T04:47:28;15.30;99.90
18823;DHT22;9540;51.550;7.980;2023-07-31T04:49:55;15.40;99.90
18823;DHT22;9540;51.550;7.980;2023-07-31T04:52:23;15.40;99.90
18823;DHT22;9540;51.550;7.980;2023-07-31T04:54:51;15.40;99.90
18823;DHT22;9540;51.550;7.980;2023-07-31T04:57:18;15.50;99.90
18823;DHT22;9540;51.550;7.980;2023-07-31T04:59:45;15.60;99.90
18823;DHT22;9540;51.550;7.980;2023-07-31T05:02:12;15.60;99.90
18823;DHT22;9540;51.550;7.980;2023-07-31T05:04:40;15.60;99.90
18823;DHT22;9540;51.550;7.980;2023-07-31T05:07:07;15.60;99.90
18823;DHT22;9540;51.550;7.980;2023-07-31T05:09:35;15.60;99.90
18823;DHT22;9540;51.550;7.980;2023-07-31T05:12:05;15.60;99.90
18823;DHT22;9540;51.550;7.980;2023-07-31T05:14:32;15.70;99.90
18823;DHT22;9540;51.550;7.980;2023-07-31T05:16:59;15.70;99.90
18823;DHT22;9540;51.550;7.980;2023-07-31T05:19:26;15.70;99.90
18823;DHT22;9540;51.550;7.980;2023-07-31T05:21:53;15.70;99.90
18823;DHT22;9540;51.550;7.980;2023-07-31T05:24:20;15.80;99.90
18823;DHT22;9540;51.550;7.980;2023-07-31T05:26:49;15.80;99.90
18823;DHT22;9540;51.550;7.980;2023-07-31T05:29:16;15.80;99.90
18823;DHT22;9540;51.550;7.980;2023-07-31T05:31:43;15.80;99.90
18823;DHT22;9540;51.550;7.980;2023-07-31T05:34:10;15.80;99.90
18823;DHT22;9540;51.550;7.980;2023-07-31T05:36:38;15.80;99.90
18823;DHT22;9540;51.550;7.980;2023-07-31T05:39:05;15.90;99.90
18823;DHT22;9540;51.550;7.980;2023-07-31T05:41:34;15.90;99.90
18823;DHT22;9540;51.550;7.980;2023-07-31T05:44:03;15.80;99.90
18823;DHT22;9540;51.550;7.980;2023-07-31T05:46:31;15.80;99.90
18823;DHT22;9540;51.550;7.980;2023-07-31T05:48:58;15.80;99.90
18823;DHT22;9540;51.550;7.980;2023-07-31T05:51:26;15.80;99.90
18823;DHT22;9540;51.550;7.980;2023-07-31T05:53:54;15.80;99.90
18823;DHT22;9540;51.550;7.980;2023-07-31T05:56:22;15.80;99.90
18823;DHT22;9540;51.550;7.980;2023-07-31T05:58:49;15.90;99.90
18823;DHT22;9540;51.550;7.980;2023-07-31T06:01:18;15.90;99.90
18823;DHT22;9540;51.550;7.980;2023-07-31T06:03:47;15.90;99.90
18823;DHT22;9540;51.550;7.980;2023-07-31T06:06:14;15.90;99.90
18823;DHT22;9540;51.550;7.980;2023-07-31T06:08:41;16.00;99.90
18823;DHT22;9540;51.550;7.980;2023-07-31T06:11:08;16.00;99.90
18823;DHT22;9540;51.550;7.980;2023-07-31T06:13:35;16.10;99.90
18823;DHT22;9540;51.550;7.980;2023-07-31T06:16:04;16.10;99.90
18823;DHT22;9540;51.550;7.980;2023-07-31T06:18:33;16.10;99.90
18823;DHT22;9540;51.550;7.980;2023-07-31T06:21:00;16.10;99.90
18823;DHT22;9540;51.550;7.980;2023-07-31T06:23:27;16.10;99.90
18823;DHT22;9540;51.550;7.980;2023-07-31T06:25:55;16.20;99.90
18823;DHT22;9540;51.550;7.980;2023-07-31T06:28:27;16.20;99.90
18823;DHT22;9540;51.550;7.980;2023-07-31T06:30:55;16.20;99.90
18823;DHT22;9540;51.550;7.980;2023-07-31T06:33:22;16.30;99.90
18823;DHT22;9540;51.550;7.980;2023-07-31T06:35:50;16.30;99.90
18823;DHT22;9540;51.550;7.980;2023-07-31T06:38:21;16.30;99.90
18823;DHT22;9540;51.550;7.980;2023-07-31T06:40:48;16.30;99.90
18823;DHT22;9540;51.550;7.980;2023-07-31T06:43:16;16.30;99.90
18823;DHT22;9540;51.550;7.980;2023-07-31T06:45:43;16.30;99.90
18823;DHT22;9540;51.550;7.980;2023-07-31T06:48:11;16.30;99.90
18823;DHT22;9540;51.550;7.980;2023-07-31T06:50:38;16.40;99.90
18823;DHT22;9540;51.550;7.980;2023-07-31T06:53:07;16.40;99.90
18823;DHT22;9540;51.550;7.980;2023-07-31T06:55:34;16.50;99.90
18823;DHT22;9540;51.550;7.980;2023-07-31T06:58:01;16.50;99.90
18823;DHT22;9540;51.550;7.980;2023-07-31T07:00:29;16.50;99.90
18823;DHT22;9540;51.550;7.980;2023-07-31T07:02:57;16.50;99.90
18823;DHT22;9540;51.550;7.980;2023-07-31T07:05:24;16.50;99.90
18823;DHT22;9540;51.550;7.980;2023-07-31T07:07:51;16.50;99.90
18823;DHT22;9540;51.550;7.980;2023-07-31T07:10:20;16.50;99.90
18823;DHT22;9540;51.550;7.980;2023-07-31T07:12:48;16.50;99.90
18823;DHT22;9540;51.550;7.980;2023-07-31T07:15:15;16.60;99.90
18823;DHT22;9540;51.550;7.980;2023-07-31T07:17:42;16.60;99.90
18823;DHT22;9540;51.550;7.980;2023-07-31T07:20:13;16.60;99.90
18823;DHT22;9540;51.550;7.980;2023-07-31T07:22:40;16.70;99.90
18823;DHT22;9540;51.550;7.980;2023-07-31T07:25:09;16.70;99.90
18823;DHT22;9540;51.550;7.980;2023-07-31T07:27:37;16.80;99.90
18823;DHT22;9540;51.550;7.980;2023-07-31T07:30:06;16.80;99.90
18823;DHT22;9540;51.550;7.980;2023-07-31T07:32:34;16.80;99.90
18823;DHT22;9540;51.550;7.980;2023-07-31T07:35:01;16.90;99.90
18823;DHT22;9540;51.550;7.980;2023-07-31T07:37:29;16.90;99.90
18823;DHT22;9540;51.550;7.980;2023-07-31T07:39:56;17.00;99.90
18823;DHT22;9540;51.550;7.980;2023-07-31T07:42:23;17.00;99.90
18823;DHT22;9540;51.550;7.980;2023-07-31T07:44:52;17.10;99.90
18823;DHT22;9540;51.550;7.980;2023-07-31T07:47:19;17.10;99.90
18823;DHT22;9540;51.550;7.980;2023-07-31T07:49:46;17.10;99.90
18823;DHT22;9540;51.550;7.980;2023-07-31T07:52:13;17.10;99.90
18823;DHT22;9540;51.550;7.980;2023-07-31T07:54:40;17.10;99.90
18823;DHT22;9540;51.550;7.980;2023-07-31T07:57:07;17.20;99.90
18823;DHT22;9540;51.550;7.980;2023-07-31T07:59:35;17.20;99.90
18823;DHT22;9540;51.550;7.980;2023-07-31T08:02:04;17.10;99.90
18823;DHT22;9540;51.550;7.980;2023-07-31T08:04:31;17.10;99.90
18823;DHT22;9540;51.550;7.980;2023-07-31T08:06:59;17.10;99.90
18823;DHT22;9540;51.550;7.980;2023-07-31T08:09:26;17.10;99.90
18823;DHT22;9540;51.550;7.980;2023-07-31T08:11:54;17.10;99.90
18823;DHT22;9540;51.550;7.980;2023-07-31T08:14:23;17.10;99.90
18823;DHT22;9540;51.550;7.980;2023-07-31T08:16:51;17.10;99.90
18823;DHT22;9540;51.550;7.980;2023-07-31T08:19:21;17.10;99.90
18823;DHT22;9540;51.550;7.980;2023-07-31T08:21:49;17.20;99.90
18823;DHT22;9540;51.550;7.980;2023-07-31T08:24:16;17.20;99.90
18823;DHT22;9540;51.550;7.980;2023-07-31T08:26:43;17.20;99.90
18823;DHT22;9540;51.550;7.980;2023-07-31T08:29:10;17.30;99.90
18823;DHT22;9540;51.550;7.980;2023-07-31T08:31:37;17.30;99.90
18823;DHT22;9540;51.550;7.980;2023-07-31T08:34:04;17.30;99.90
18823;DHT22;9540;51.550;7.980;2023-07-31T08:36:33;17.40;99.90
18823;DHT22;9540;51.550;7.980;2023-07-31T08:39:00;17.40;99.90
18823;DHT22;9540;51.550;7.980;2023-07-31T08:41:28;17.30;99.90
18823;DHT22;9540;51.550;7.980;2023-07-31T08:43:55;17.40;99.90
18823;DHT22;9540;51.550;7.980;2023-07-31T08:46:23;17.40;99.90
18823;DHT22;9540;51.550;7.980;2023-07-31T08:48:51;17.50;99.90
18823;DHT22;9540;51.550;7.980;2023-07-31T08:51:19;17.50;99.90
18823;DHT22;9540;51.550;7.980;2023-07-31T08:53:48;17.50;99.90
18823;DHT22;9540;51.550;7.980;2023-07-31T08:56:16;17.50;99.90
18823;DHT22;9540;51.550;7.980;2023-07-31T08:58:46;17.50;99.90
18823;DHT22;9540;51.550;7.980;2023-07-31T09:01:14;17.50;99.90
18823;DHT22;9540;51.550;7.980;2023-07-31T09:03:42;17.50;99.90
18823;DHT22;9540;51.550;7.980;2023-07-31T09:06:11;17.50;99.90
18823;DHT22;9540;51.550;7.980;2023-07-31T09:08:41;17.50;99.90
18823;DHT22;9540;51.550;7.980;2023-07-31T09:11:10;17.60;99.90
18823;DHT22;9540;51.550;7.980;2023-07-31T09:13:39;17.60;99.90
18823;DHT22;9540;51.550;7.980;2023-07-31T09:16:08;17.60;99.90
18823;DHT22;9540;51.550;7.980;2023-07-31T09:18:53;17.50;99.90
18823;DHT22;9540;51.550;7.980;2023-07-31T09:21:20;17.50;99.90
18823;DHT22;9540;51.550;7.980;2023-07-31T09:23:48;17.60;99.90
18823;DHT22;9540;51.550;7.980;2023-07-31T09:26:30;17.60;99.90
18823;DHT22;9540;51.550;7.980;2023-07-31T09:28:58;17.70;99.90
18823;DHT22;9540;51.550;7.980;2023-07-31T09:31:38;17.80;99.90
18823;DHT22;9540;51.550;7.980;2023-07-31T09:34:05;17.90;99.90
18823;DHT22;9540;51.550;7.980;2023-07-31T09:36:32;18.00;99.90
18823;DHT22;9540;51.550;7.980;2023-07-31T09:39:02;18.10;99.90
18823;DHT22;9540;51.550;7.980;2023-07-31T09:41:31;18.00;99.90
18823;DHT22;9540;51.550;7.980;2023-07-31T09:44:03;18.00;99.90
18823;DHT22;9540;51.550;7.980;2023-07-31T09:46:30;17.80;99.90
18823;DHT22;9540;51.550;7.980;2023-07-31T09:49:08;17.80;99.90
18823;DHT22;9540;51.550;7.980;2023-07-31T09:51:36;17.80;99.90
18823;DHT22;9540;51.550;7.980;2023-07-31T09:54:15;17.70;99.90
18823;DHT22;9540;51.550;7.980;2023-07-31T09:56:45;17.60;99.90
18823;DHT22;9540;51.550;7.980;2023-07-31T09:59:14;17.50;99.90
18823;DHT22;9540;51.550;7.980;2023-07-31T10:01:42;17.30;99.90
18823;DHT22;9540;51.550;7.980;2023-07-31T10:04:10;17.20;99.90
18823;DHT22;9540;51.550;7.980;2023-07-31T10:06:38;17.10;99.90
18823;DHT22;9540;51.550;7.980;2023-07-31T10:09:07;17.10;99.90
18823;DHT22;9540;51.550;7.980;2023-07-31T10:11:41;17.00;99.90
18823;DHT22;9540;51.550;7.980;2023-07-31T10:14:11;17.00;99.90
18823;DHT22;9540;51.550;7.980;2023-07-31T10:16:39;17.00;99.90
18823;DHT22;9540;51.550;7.980;2023-07-31T10:19:07;16.90;99.90
18823;DHT22;9540;51.550;7.980;2023-07-31T10:21:35;16.80;99.90
18823;DHT22;9540;51.550;7.980;2023-07-31T10:24:04;16.80;99.90
18823;DHT22;9540;51.550;7.980;2023-07-31T10:26:32;16.80;99.90
18823;DHT22;9540;51.550;7.980;2023-07-31T10:29:00;16.80;99.90
18823;DHT22;9540;51.550;7.980;2023-07-31T10:31:29;16.70;99.90
18823;DHT22;9540;51.550;7.980;2023-07-31T10:33:57;16.70;99.90
18823;DHT22;9540;51.550;7.980;2023-07-31T10:36:25;16.90;99.90
18823;DHT22;9540;51.550;7.980;2023-07-31T10:38:54;17.00;99.90
18823;DHT22;9540;51.550;7.980;2023-07-31T10:41:28;17.10;99.90
18823;DHT22;9540;51.550;7.980;2023-07-31T10:43:57;17.30;99.90
18823;DHT22;9540;51.550;7.980;2023-07-31T10:46:24;17.40;99.90
18823;DHT22;9540;51.550;7.980;2023-07-31T10:49:00;17.30;99.90
18823;DHT22;9540;51.550;7.980;2023-07-31T10:51:33;17.30;99.90
18823;DHT22;9540;51.550;7.980;2023-07-31T10:54:13;17.30;99.90
18823;DHT22;9540;51.550;7.980;2023-07-31T10:56:40;17.30;99.90
18823;DHT22;9540;51.550;7.980;2023-07-31T10:59:11;17.40;99.90
18823;DHT22;9540;51.550;7.980;2023-07-31T11:01:52;17.40;99.90
18823;DHT22;9540;51.550;7.980;2023-07-31T11:04:24;17.50;99.90
18823;DHT22;9540;51.550;7.980;2023-07-31T11:06:58;17.50;99.90
18823;DHT22;9540;51.550;7.980;2023-07-31T11:09:28;17.50;99.90
18823;DHT22;9540;51.550;7.980;2023-07-31T11:11:56;17.50;99.90
18823;DHT22;9540;51.550;7.980;2023-07-31T11:14:23;17.60;99.90
18823;DHT22;9540;51.550;7.980;2023-07-31T11:16:51;17.60;99.90
18823;DHT22;9540;51.550;7.980;2023-07-31T11:19:23;17.50;99.90
18823;DHT22;9540;51.550;7.980;2023-07-31T11:21:51;17.60;99.90
18823;DHT22;9540;51.550;7.980;2023-07-31T11:24:19;17.50;99.90
18823;DHT22;9540;51.550;7.980;2023-07-31T11:26:50;17.50;99.90
18823;DHT22;9540;51.550;7.980;2023-07-31T11:29:18;17.40;99.90
18823;DHT22;9540;51.550;7.980;2023-07-31T11:31:46;17.40;99.90
18823;DHT22;9540;51.550;7.980;2023-07-31T11:34:15;17.50;99.90
18823;DHT22;9540;51.550;7.980;2023-07-31T11:36:54;17.60;99.90
18823;DHT22;9540;51.550;7.980;2023-07-31T11:39:22;17.80;99.90
18823;DHT22;9540;51.550;7.980;2023-07-31T11:41:49;17.90;99.90
18823;DHT22;9540;51.550;7.980;2023-07-31T11:44:16;18.00;99.90
18823;DHT22;9540;51.550;7.980;2023-07-31T11:46:43;18.00;99.90
18823;DHT22;9540;51.550;7.980;2023-07-31T11:49:11;18.10;99.90
18823;DHT22;9540;51.550;7.980;2023-07-31T11:51:38;18.10;99.90
18823;DHT22;9540;51.550;7.980;2023-07-31T11:54:07;18.20;99.90
18823;DHT22;9540;51.550;7.980;2023-07-31T11:56:35;18.20;99.90
18823;DHT22;9540;51.550;7.980;2023-07-31T11:59:02;18.30;99.90
18823;DHT22;9540;51.550;7.980;2023-07-31T12:01:31;18.10;99.90
18823;DHT22;9540;51.550;7.980;2023-07-31T12:03:59;17.90;99.90
18823;DHT22;9540;51.550;7.980;2023-07-31T12:06:33;17.80;99.90
18823;DHT22;9540;51.550;7.980;2023-07-31T12:09:03;17.90;99.90
18823;DHT22;9540;51.550;7.980;2023-07-31T12:11:42;17.80;99.90
18823;DHT22;9540;51.550;7.980;2023-07-31T12:14:23;17.90;99.90
18823;DHT22;9540;51.550;7.980;2023-07-31T12:17:00;17.80;99.90
18823;DHT22;9540;51.550;7.980;2023-07-31T12:19:33;17.90;99.90
18823;DHT22;9540;51.550;7.980;2023-07-31T12:22:10;18.00;99.90
18823;DHT22;9540;51.550;7.980;2023-07-31T12:24:54;18.10;99.90
18823;DHT22;9540;51.550;7.980;2023-07-31T12:27:33;18.20;99.90
18823;DHT22;9540;51.550;7.980;2023-07-31T12:30:01;18.20;99.90
18823;DHT22;9540;51.550;7.980;2023-07-31T12:32:30;18.20;99.90
18823;DHT22;9540;51.550;7.980;2023-07-31T12:35:00;18.20;99.90
18823;DHT22;9540;51.550;7.980;2023-07-31T12:37:29;18.10;99.90
18823;DHT22;9540;51.550;7.980;2023-07-31T12:39:58;18.10;99.90
18823;DHT22;9540;51.550;7.980;2023-07-31T12:42:32;18.20;99.90
18823;DHT22;9540;51.550;7.980;2023-07-31T12:44:59;18.20;99.90
18823;DHT22;9540;51.550;7.980;2023-07-31T12:50:12;18.30;99.90
18823;DHT22;9540;51.550;7.980;2023-07-31T12:52:42;18.30;99.90
18823;DHT22;9540;51.550;7.980;2023-07-31T12:55:18;18.40;99.90
18823;DHT22;9540;51.550;7.980;2023-07-31T12:58:00;18.40;99.90
18823;DHT22;9540;51.550;7.980;2023-07-31T13:00:31;18.40;99.90
18823;DHT22;9540;51.550;7.980;2023-07-31T13:02:58;18.30;99.90
18823;DHT22;9540;51.550;7.980;2023-07-31T13:05:26;18.40;99.90
18823;DHT22;9540;51.550;7.980;2023-07-31T13:07:53;18.40;99.90
18823;DHT22;9540;51.550;7.980;2023-07-31T13:10:21;18.50;99.90
18823;DHT22;9540;51.550;7.980;2023-07-31T13:12:49;18.50;99.90
18823;DHT22;9540;51.550;7.980;2023-07-31T13:15:18;18.60;99.90
18823;DHT22;9540;51.550;7.980;2023-07-31T13:17:45;18.60;99.90
18823;DHT22;9540;51.550;7.980;2023-07-31T13:20:13;18.60;99.90
18823;DHT22;9540;51.550;7.980;2023-07-31T13:22:40;18.60;99.90
18823;DHT22;9540;51.550;7.980;2023-07-31T13:25:08;18.60;99.90
18823;DHT22;9540;51.550;7.980;2023-07-31T13:27:36;18.70;99.90
18823;DHT22;9540;51.550;7.980;2023-07-31T13:30:03;18.60;99.90
18823;DHT22;9540;51.550;7.980;2023-07-31T13:32:32;18.60;99.90
18823;DHT22;9540;51.550;7.980;2023-07-31T13:35:05;18.60;99.90
18823;DHT22;9540;51.550;7.980;2023-07-31T13:37:33;18.50;99.90
18823;DHT22;9540;51.550;7.980;2023-07-31T13:40:01;18.40;99.90
18823;DHT22;9540;51.550;7.980;2023-07-31T13:42:30;18.40;99.90
18823;DHT22;9540;51.550;7.980;2023-07-31T13:44:58;18.40;99.90
18823;DHT22;9540;51.550;7.980;2023-07-31T13:47:26;18.40;99.90
18823;DHT22;9540;51.550;7.980;2023-07-31T13:49:55;18.40;99.90
18823;DHT22;9540;51.550;7.980;2023-07-31T13:52:23;18.40;99.90
18823;DHT22;9540;51.550;7.980;2023-07-31T13:54:50;18.40;99.90
18823;DHT22;9540;51.550;7.980;2023-07-31T13:57:18;18.40;99.90
18823;DHT22;9540;51.550;7.980;2023-07-31T13:59:45;18.50;99.90
18823;DHT22;9540;51.550;7.980;2023-07-31T14:02:12;18.50;99.90
18823;DHT22;9540;51.550;7.980;2023-07-31T14:04:40;18.50;99.90
18823;DHT22;9540;51.550;7.980;2023-07-31T14:07:09;18.60;99.90
18823;DHT22;9540;51.550;7.980;2023-07-31T14:09:36;18.60;99.90
18823;DHT22;9540;51.550;7.980;2023-07-31T14:12:05;18.60;99.90
18823;DHT22;9540;51.550;7.980;2023-07-31T14:14:32;18.50;99.90
18823;DHT22;9540;51.550;7.980;2023-07-31T14:16:59;18.60;99.90
18823;DHT22;9540;51.550;7.980;2023-07-31T14:19:26;18.50;99.90
18823;DHT22;9540;51.550;7.980;2023-07-31T14:21:54;18.50;99.90
18823;DHT22;9540;51.550;7.980;2023-07-31T14:24:23;18.50;99.90
18823;DHT22;9540;51.550;7.980;2023-07-31T14:26:50;18.50;99.90
18823;DHT22;9540;51.550;7.980;2023-07-31T14:29:17;18.50;99.90
18823;DHT22;9540;51.550;7.980;2023-07-31T14:31:45;18.50;99.90
18823;DHT22;9540;51.550;7.980;2023-07-31T14:34:12;18.60;99.90
18823;DHT22;9540;51.550;7.980;2023-07-31T14:36:39;18.70;99.90
18823;DHT22;9540;51.550;7.980;2023-07-31T14:39:06;18.80;99.90
18823;DHT22;9540;51.550;7.980;2023-07-31T14:41:35;18.90;99.90
18823;DHT22;9540;51.550;7.980;2023-07-31T14:44:02;19.00;99.90
18823;DHT22;9540;51.550;7.980;2023-07-31T14:46:30;19.10;99.90
18823;DHT22;9540;51.550;7.980;2023-07-31T14:48:57;19.20;99.90
18823;DHT22;9540;51.550;7.980;2023-07-31T14:51:25;19.20;99.90
18823;DHT22;9540;51.550;7.980;2023-07-31T14:53:52;19.30;99.90
18823;DHT22;9540;51.550;7.980;2023-07-31T14:56:19;19.30;99.90
18823;DHT22;9540;51.550;7.980;2023-07-31T14:58:48;19.30;99.90
18823;DHT22;9540;51.550;7.980;2023-07-31T15:01:15;19.40;99.90
18823;DHT22;9540;51.550;7.980;2023-07-31T15:03:43;19.50;99.90
18823;DHT22;9540;51.550;7.980;2023-07-31T15:06:10;19.60;99.90
18823;DHT22;9540;51.550;7.980;2023-07-31T15:08:38;19.60;99.90
18823;DHT22;9540;51.550;7.980;2023-07-31T15:11:07;19.50;99.90
18823;DHT22;9540;51.550;7.980;2023-07-31T15:13:34;19.40;99.90
18823;DHT22;9540;51.550;7.980;2023-07-31T15:16:03;19.30;99.90
18823;DHT22;9540;51.550;7.980;2023-07-31T15:18:30;19.40;99.90
18823;DHT22;9540;51.550;7.980;2023-07-31T15:20:58;19.40;99.90
18823;DHT22;9540;51.550;7.980;2023-07-31T15:23:25;19.40;99.90
18823;DHT22;9540;51.550;7.980;2023-07-31T15:25:53;19.40;99.90
18823;DHT22;9540;51.550;7.980;2023-07-31T15:28:20;19.40;99.90
18823;DHT22;9540;51.550;7.980;2023-07-31T15:30:48;19.40;99.90
18823;DHT22;9540;51.550;7.980;2023-07-31T15:33:16;19.50;99.90
18823;DHT22;9540;51.550;7.980;2023-07-31T15:35:43;19.50;99.90
18823;DHT22;9540;51.550;7.980;2023-07-31T15:38:11;19.40;99.90
18823;DHT22;9540;51.550;7.980;2023-07-31T15:40:42;19.50;99.90
18823;DHT22;9540;51.550;7.980;2023-07-31T15:43:12;19.50;99.90
18823;DHT22;9540;51.550;7.980;2023-07-31T15:45:54;19.40;99.90
18823;DHT22;9540;51.550;7.980;2023-07-31T15:48:27;19.50;99.90
18823;DHT22;9540;51.550;7.980;2023-07-31T15:51:16;19.50;99.90
18823;DHT22;9540;51.550;7.980;2023-07-31T15:53:46;19.50;99.90
18823;DHT22;9540;51.550;7.980;2023-07-31T15:56:15;19.50;99.90